Time;durP1;ratioP1;P1;durP2;ratioP2;P2;SDS_P1;SDS_P2;PMS_P1;PMS_P2;Temp;Humidity;BMP_temperature;BMP_pressure;BME280_temperature;BME280_humidity;BME280_pressure;Samples;Min_cycle;Max_cycle;Signal;HPM_P1;HPM_P2
2021/06/20 00:00:49;;;;;;;26.83;14.50;;;14.30;99.90;;;;;;5074928;28;20036;-79
2021/06/20 00:03:15;;;;;;;28.73;15.60;;;14.20;99.90;;;;;;5092631;28;20387;-79
2021/06/20 00:05:52;;;;;;;24.00;14.23;;;14.20;99.90;;;;;;5091461;28;20097;-79
2021/06/20 00:08:18;;;;;;;24.67;16.10;;;14.20;99.90;;;;;;5092907;28;20027;-79
2021/06/20 00:10:44;;;;;;;23.15;13.52;;;14.30;99.90;;;;;;5091517;28;20480;-79
2021/06/20 00:13:11;;;;;;;24.92;15.20;;;14.20;99.90;;;;;;5087678;28;20046;-79
2021/06/20 00:15:38;;;;;;;23.63;13.27;;;14.20;99.90;;;;;;5092689;28;20035;-79
2021/06/20 00:18:05;;;;;;;22.13;13.90;;;14.20;99.90;;;;;;5091401;28;20081;-79
2021/06/20 00:20:33;;;;;;;34.40;15.13;;;14.20;99.90;;;;;;5092572;28;20070;-79
2021/06/20 00:22:59;;;;;;;25.20;13.18;;;14.20;99.90;;;;;;5077005;28;20476;-79
2021/06/20 00:25:25;;;;;;;28.25;14.90;;;14.10;99.90;;;;;;5070962;28;20115;-79
2021/06/20 00:27:53;;;;;;;22.63;14.35;;;14.00;99.90;;;;;;5071226;28;20024;-79
2021/06/20 00:30:21;;;;;;;22.58;13.32;;;14.00;99.90;;;;;;5072305;28;20388;-79
2021/06/20 00:32:48;;;;;;;22.77;13.45;;;14.00;99.90;;;;;;5081856;28;20024;-79
2021/06/20 00:35:15;;;;;;;27.75;15.18;;;14.00;99.90;;;;;;5092335;28;20042;-79
2021/06/20 00:37:40;;;;;;;21.77;14.40;;;13.90;99.90;;;;;;5092410;28;20035;-79
2021/06/20 00:40:06;;;;;;;24.88;13.57;;;13.90;99.90;;;;;;5091103;28;20024;-79
2021/06/20 00:42:36;;;;;;;22.13;15.68;;;13.90;99.90;;;;;;5086522;28;20063;-79
2021/06/20 00:45:03;;;;;;;19.13;13.70;;;13.90;99.90;;;;;;5072088;28;20031;-79
2021/06/20 00:47:28;;;;;;;22.67;13.55;;;13.90;99.90;;;;;;5071863;28;20020;-79
2021/06/20 00:49:54;;;;;;;25.65;14.57;;;13.90;99.90;;;;;;5071880;28;20150;-79
2021/06/20 00:52:20;;;;;;;31.27;13.10;;;13.80;99.90;;;;;;5071911;28;20107;-79
2021/06/20 00:54:49;;;;;;;24.08;14.63;;;13.80;99.90;;;;;;5090923;28;20036;-79
2021/06/20 00:57:20;;;;;;;22.27;15.35;;;13.80;99.90;;;;;;5092162;28;20094;-79
2021/06/20 00:59:47;;;;;;;25.20;14.13;;;13.70;99.90;;;;;;5091944;28;20024;-79
2021/06/20 01:02:14;;;;;;;25.15;14.82;;;13.70;99.90;;;;;;5090363;28;20050;-79
2021/06/20 01:04:41;;;;;;;26.65;16.33;;;13.70;99.90;;;;;;5089667;28;20028;-79
2021/06/20 01:07:07;;;;;;;34.08;19.15;;;13.70;99.90;;;;;;5092041;28;20476;-79
2021/06/20 01:09:32;;;;;;;29.10;16.83;;;13.80;99.90;;;;;;5091922;28;20043;-79
2021/06/20 01:11:58;;;;;;;32.35;18.33;;;13.80;99.90;;;;;;5074514;28;20025;-79
2021/06/20 01:14:24;;;;;;;32.25;17.10;;;13.70;99.90;;;;;;5087401;28;20024;-79
2021/06/20 01:16:51;;;;;;;37.88;18.92;;;13.80;99.90;;;;;;5071596;28;20374;-79
2021/06/20 01:19:19;;;;;;;32.13;17.67;;;13.80;99.90;;;;;;5070411;28;20086;-79
2021/06/20 01:21:45;;;;;;;34.75;20.33;;;13.80;99.90;;;;;;5082867;28;20024;-79
2021/06/20 01:24:11;;;;;;;52.20;21.35;;;13.90;99.90;;;;;;5091958;28;20032;-79
2021/06/20 01:26:36;;;;;;;40.70;20.00;;;13.90;99.90;;;;;;5091780;28;20032;-79
2021/06/20 01:29:04;;;;;;;47.28;21.33;;;13.90;99.90;;;;;;5090549;28;20056;-79
2021/06/20 01:31:32;;;;;;;43.58;21.35;;;14.00;99.90;;;;;;5084277;28;20043;-79
2021/06/20 01:33:57;;;;;;;33.35;18.70;;;14.00;99.90;;;;;;5070303;28;20020;-79
2021/06/20 01:36:23;;;;;;;39.75;21.10;;;14.00;99.90;;;;;;5087072;28;20025;-79
2021/06/20 01:38:49;;;;;;;43.40;20.70;;;14.00;99.90;;;;;;5070252;28;20036;-79
2021/06/20 01:41:14;;;;;;;37.90;20.10;;;14.00;99.90;;;;;;5088328;28;20480;-80
2021/06/20 01:43:40;;;;;;;43.03;21.52;;;14.10;99.90;;;;;;5090229;28;20036;-79
2021/06/20 01:46:06;;;;;;;32.53;19.90;;;14.10;99.90;;;;;;5091388;28;20051;-79
2021/06/20 01:48:31;;;;;;;36.53;20.35;;;14.10;99.90;;;;;;5091802;28;20020;-79
2021/06/20 01:50:57;;;;;;;37.85;18.17;;;14.00;99.90;;;;;;5090338;28;20048;-79
2021/06/20 01:53:22;;;;;;;40.30;19.80;;;14.10;99.90;;;;;;5074319;28;20037;-79
2021/06/20 01:55:48;;;;;;;47.00;21.30;;;14.10;99.90;;;;;;5071320;28;20099;-79
2021/06/20 01:58:17;;;;;;;38.70;19.45;;;14.10;99.90;;;;;;5071378;28;20409;-79
2021/06/20 02:00:45;;;;;;;38.08;19.67;;;14.00;99.90;;;;;;5071144;28;20024;-79
2021/06/20 02:03:17;;;;;;;32.83;18.92;;;14.00;99.90;;;;;;5082833;28;20024;-79
2021/06/20 02:05:44;;;;;;;29.65;17.08;;;14.00;99.90;;;;;;5091276;28;20028;-79
2021/06/20 02:08:11;;;;;;;31.52;18.05;;;13.90;99.90;;;;;;5090232;28;20024;-79
2021/06/20 02:10:40;;;;;;;35.67;19.83;;;13.90;99.90;;;;;;5091385;28;20436;-79
2021/06/20 02:13:06;;;;;;;47.38;20.38;;;13.90;99.90;;;;;;5082215;28;20017;-79
2021/06/20 02:15:33;;;;;;;38.70;20.33;;;13.90;99.90;;;;;;5090372;28;20028;-79
2021/06/20 02:17:59;;;;;;;41.47;20.45;;;14.00;99.90;;;;;;5074782;28;20033;-79
2021/06/20 02:20:24;;;;;;;46.92;22.38;;;14.00;99.90;;;;;;5073486;28;20032;-79
2021/06/20 02:22:51;;;;;;;42.00;20.67;;;14.00;99.90;;;;;;5090223;28;20495;-79
2021/06/20 02:25:18;;;;;;;40.97;19.75;;;14.00;99.90;;;;;;5074627;28;20111;-78
2021/06/20 02:27:46;;;;;;;41.08;19.42;;;14.00;99.90;;;;;;5074456;28;20027;-79
2021/06/20 02:30:13;;;;;;;49.72;20.88;;;14.00;99.90;;;;;;5074498;28;20074;-80
2021/06/20 02:32:40;;;;;;;30.52;19.05;;;14.10;99.90;;;;;;5072904;28;20636;-79
2021/06/20 02:35:09;;;;;;;42.95;19.55;;;14.00;99.90;;;;;;5075507;28;20107;-79
2021/06/20 02:37:34;;;;;;;41.83;20.90;;;14.10;99.90;;;;;;5074420;28;20024;-78
2021/06/20 02:40:00;;;;;;;49.85;21.08;;;14.10;99.90;;;;;;5074286;28;20028;-79
2021/06/20 02:42:26;;;;;;;40.85;20.48;;;14.20;99.90;;;;;;5089469;28;20083;-79
2021/06/20 02:44:53;;;;;;;45.00;21.45;;;14.20;99.90;;;;;;5088321;28;20056;-79
2021/06/20 02:47:18;;;;;;;44.80;21.42;;;14.20;99.90;;;;;;5094466;28;20021;-79
2021/06/20 02:49:44;;;;;;;40.97;21.60;;;14.30;99.90;;;;;;5094378;28;20035;-79
2021/06/20 02:52:12;;;;;;;41.67;21.95;;;14.30;99.90;;;;;;5094730;28;20043;-79
2021/06/20 02:54:49;;;;;;;40.35;21.88;;;14.30;99.90;;;;;;5084508;28;20032;-79
2021/06/20 02:57:19;;;;;;;51.05;22.35;;;14.30;99.90;;;;;;5074799;28;20024;-79
2021/06/20 02:59:46;;;;;;;42.13;21.25;;;14.30;99.90;;;;;;5072714;28;20576;-79
2021/06/20 03:02:11;;;;;;;38.13;19.30;;;14.40;99.90;;;;;;5073662;28;20017;-79
2021/06/20 03:04:37;;;;;;;42.20;22.10;;;14.40;99.90;;;;;;5079962;28;20027;-79
2021/06/20 03:07:04;;;;;;;36.70;19.75;;;14.40;99.90;;;;;;5094130;28;20020;-79
2021/06/20 03:09:29;;;;;;;40.90;21.63;;;14.40;99.90;;;;;;5093964;28;20388;-79
2021/06/20 03:11:55;;;;;;;52.22;21.70;;;14.50;99.90;;;;;;5093350;28;20027;-79
2021/06/20 03:14:21;;;;;;;41.10;21.00;;;14.50;99.90;;;;;;5092278;28;20020;-79
2021/06/20 03:16:47;;;;;;;35.95;21.20;;;14.50;99.90;;;;;;5073647;28;20484;-79
2021/06/20 03:19:13;;;;;;;39.00;21.08;;;14.50;99.90;;;;;;5073570;28;20032;-79
2021/06/20 03:21:39;;;;;;;41.33;20.45;;;14.60;99.90;;;;;;5073938;28;20032;-79
2021/06/20 03:24:05;;;;;;;39.42;22.45;;;14.60;99.90;;;;;;5072771;28;20043;-79
2021/06/20 03:26:31;;;;;;;36.22;20.60;;;14.60;99.90;;;;;;5088076;28;20028;-79
2021/06/20 03:28:58;;;;;;;38.30;20.73;;;14.60;99.90;;;;;;5093484;28;20035;-79
2021/06/20 03:31:24;;;;;;;43.85;21.50;;;14.70;99.90;;;;;;5093288;28;20091;-79
2021/06/20 03:33:49;;;;;;;33.72;19.35;;;14.70;99.90;;;;;;5093410;28;20024;-79
2021/06/20 03:36:15;;;;;;;45.13;22.33;;;14.80;99.90;;;;;;5082921;28;20557;-79
2021/06/20 03:38:41;;;;;;;39.92;21.25;;;14.80;99.90;;;;;;5073156;28;20036;-79
2021/06/20 03:41:10;;;;;;;37.45;21.08;;;14.90;99.90;;;;;;5073144;28;20075;-80
2021/06/20 03:43:37;;;;;;;49.28;23.80;;;14.90;99.90;;;;;;5072873;28;20021;-79
2021/06/20 03:46:02;;;;;;;47.22;22.65;;;15.00;99.90;;;;;;5079497;28;20096;-79
2021/06/20 03:48:28;;;;;;;50.90;23.27;;;15.00;99.90;;;;;;5080929;28;20024;-79
2021/06/20 03:50:54;;;;;;;45.53;22.92;;;15.10;99.90;;;;;;5073163;28;20035;-79
2021/06/20 03:53:19;;;;;;;55.60;25.90;;;15.20;99.90;;;;;;5072521;28;20121;-79
2021/06/20 03:55:45;;;;;;;54.17;25.25;;;15.20;99.90;;;;;;5073964;28;20078;-79
2021/06/20 03:58:10;;;;;;;49.58;24.23;;;15.40;99.90;;;;;;5092987;28;20039;-79
2021/06/20 04:00:37;;;;;;;57.20;26.05;;;15.40;99.90;;;;;;5093018;28;20039;-79
2021/06/20 04:03:03;;;;;;;56.75;25.48;;;15.50;99.90;;;;;;5092542;28;20026;-79
2021/06/20 04:05:29;;;;;;;59.53;27.15;;;15.60;99.90;;;;;;5092841;28;20024;-79
2021/06/20 04:07:55;;;;;;;43.65;26.38;;;15.80;99.90;;;;;;5077672;28;20074;-80
2021/06/20 04:10:21;;;;;;;55.47;28.30;;;15.90;99.90;;;;;;5073272;28;20039;-80
2021/06/20 04:12:46;;;;;;;53.10;26.50;;;16.00;99.90;;;;;;5072259;28;20031;-79
2021/06/20 04:15:12;;;;;;;50.63;27.40;;;16.00;99.90;;;;;;5087640;28;20063;-80
2021/06/20 04:17:38;;;;;;;52.13;27.77;;;16.10;99.90;;;;;;5092547;28;20031;-81
2021/06/20 04:20:07;;;;;;;57.30;28.77;;;16.20;99.90;;;;;;5093554;28;20134;-81
2021/06/20 04:22:33;;;;;;;56.95;28.00;;;16.20;99.90;;;;;;5091916;28;20441;-80
2021/06/20 04:24:59;;;;;;;49.05;28.23;;;16.30;99.90;;;;;;5091814;28;20042;-80
2021/06/20 04:27:24;;;;;;;56.85;27.17;;;16.40;99.90;;;;;;5091280;28;20484;-80
2021/06/20 04:29:50;;;;;;;44.08;28.83;;;16.40;99.90;;;;;;5092061;28;20016;-79
2021/06/20 04:32:16;;;;;;;44.53;27.08;;;16.40;99.90;;;;;;5090903;28;20496;-80
2021/06/20 04:34:41;;;;;;;50.35;29.02;;;16.50;99.90;;;;;;5086944;28;20025;-80
2021/06/20 04:37:07;;;;;;;40.13;24.50;;;16.60;99.90;;;;;;5088441;28;20059;-81
2021/06/20 04:39:33;;;;;;;49.47;26.52;;;16.60;99.90;;;;;;5072249;28;20017;-80
2021/06/20 04:41:58;;;;;;;43.42;25.98;;;16.70;99.90;;;;;;5071813;28;20020;-81
2021/06/20 04:44:43;;;;;;;43.72;26.83;;;16.70;99.90;;;;;;5072048;28;20021;-80
2021/06/20 04:47:10;;;;;;;58.25;27.75;;;16.70;99.90;;;;;;5072062;28;20027;-80
2021/06/20 04:49:35;;;;;;;49.53;31.02;;;16.80;99.90;;;;;;5072024;28;20488;-80
2021/06/20 04:52:05;;;;;;;43.22;26.48;;;16.80;99.90;;;;;;5070266;28;20031;-80
2021/06/20 04:54:32;;;;;;;41.75;26.23;;;16.90;99.90;;;;;;5070759;28;20115;-80
2021/06/20 04:56:58;;;;;;;51.28;29.02;;;16.90;99.90;;;;;;5088694;28;20024;-81
2021/06/20 04:59:24;;;;;;;42.30;27.27;;;17.00;99.90;;;;;;5090755;28;20117;-80
2021/06/20 05:01:49;;;;;;;39.88;26.38;;;17.00;99.90;;;;;;5091699;28;20046;-79
2021/06/20 05:04:15;;;;;;;46.33;27.83;;;17.10;99.90;;;;;;5092252;28;20028;-79
2021/06/20 05:06:40;;;;;;;52.83;28.08;;;17.00;99.90;;;;;;5080291;28;20407;-79
2021/06/20 05:09:06;;;;;;;48.97;26.35;;;17.10;99.90;;;;;;5091970;28;20020;-80
2021/06/20 05:11:32;;;;;;;41.65;25.98;;;17.20;99.90;;;;;;5091179;28;20395;-80
2021/06/20 05:13:57;;;;;;;67.95;30.02;;;17.10;99.90;;;;;;5091915;28;20063;-80
2021/06/20 05:16:23;;;;;;;46.78;29.65;;;17.10;99.90;;;;;;5082803;28;20048;-79
2021/06/20 05:18:49;;;;;;;48.88;32.00;;;17.10;99.90;;;;;;5087769;28;20123;-79
2021/06/20 05:21:14;;;;;;;48.20;32.15;;;17.00;99.90;;;;;;5069367;28;20020;-78
2021/06/20 05:23:40;;;;;;;58.95;33.05;;;17.00;99.90;;;;;;5077141;28;20016;-77
2021/06/20 05:26:05;;;;;;;58.72;30.80;;;17.00;99.90;;;;;;5084765;28;20473;-77
2021/06/20 05:28:31;;;;;;;34.60;17.58;;;16.90;99.90;;;;;;5080153;28;20020;-78
2021/06/20 05:30:57;;;;;;;153.52;20.98;;;16.60;99.90;;;;;;5077156;28;20028;-77
2021/06/20 05:33:22;;;;;;;29.23;14.82;;;16.50;99.90;;;;;;5077049;28;20472;-78
2021/06/20 05:35:48;;;;;;;25.83;14.90;;;16.30;99.90;;;;;;5068243;28;20047;-79
2021/06/20 05:38:14;;;;;;;31.52;15.50;;;16.20;99.90;;;;;;5082977;28;20082;-78
2021/06/20 05:40:41;;;;;;;37.55;16.70;;;16.10;99.90;;;;;;5076794;28;20032;-80
2021/06/20 05:43:07;;;;;;;24.98;14.80;;;16.10;99.90;;;;;;5069836;28;20059;-78
2021/06/20 05:45:33;;;;;;;25.52;15.30;;;16.10;99.90;;;;;;5077640;28;20024;-78
2021/06/20 05:47:59;;;;;;;36.97;15.77;;;16.10;99.90;;;;;;5081307;28;20468;-79
2021/06/20 05:50:24;;;;;;;30.35;15.23;;;16.20;99.90;;;;;;5083717;28;20077;-79
2021/06/20 05:52:50;;;;;;;30.33;17.40;;;16.20;99.90;;;;;;5085666;28;20044;-79
2021/06/20 05:55:16;;;;;;;30.33;18.27;;;16.20;99.90;;;;;;5089721;28;20027;-79
2021/06/20 05:57:41;;;;;;;31.17;17.23;;;16.20;99.90;;;;;;5080579;28;20027;-79
2021/06/20 06:00:08;;;;;;;28.65;17.02;;;16.30;99.90;;;;;;5086940;28;20051;-79
2021/06/20 06:02:34;;;;;;;43.53;20.95;;;16.30;99.90;;;;;;5089011;28;20024;-80
2021/06/20 06:04:59;;;;;;;27.08;16.98;;;16.30;99.90;;;;;;5089103;28;20035;-79
2021/06/20 06:07:25;;;;;;;40.78;21.42;;;16.30;99.90;;;;;;5078126;28;21414;-79
2021/06/20 06:09:51;;;;;;;35.13;19.65;;;16.40;99.90;;;;;;5079255;28;20028;-79
2021/06/20 06:12:21;;;;;;;28.70;18.35;;;16.40;99.90;;;;;;5069704;28;20142;-79
2021/06/20 06:14:47;;;;;;;35.42;20.10;;;16.50;99.90;;;;;;5081012;28;20047;-80
2021/06/20 06:17:12;;;;;;;46.20;25.58;;;16.60;99.90;;;;;;5080684;28;20040;-80
2021/06/20 06:19:38;;;;;;;42.22;23.58;;;16.70;99.90;;;;;;5084639;28;20034;-80
2021/06/20 06:22:04;;;;;;;53.97;27.85;;;16.70;99.90;;;;;;5083395;28;20025;-80
2021/06/20 06:24:29;;;;;;;42.78;24.80;;;16.90;99.90;;;;;;5096590;28;20024;-80
2021/06/20 06:26:55;;;;;;;55.88;25.48;;;16.90;99.90;;;;;;5094597;28;20039;-80
2021/06/20 06:29:20;;;;;;;36.90;22.70;;;17.00;99.90;;;;;;5083774;28;20684;-79
2021/06/20 06:31:46;;;;;;;48.65;26.02;;;17.10;99.90;;;;;;5088724;28;20369;-79
2021/06/20 06:34:11;;;;;;;49.00;25.95;;;17.00;99.90;;;;;;5089055;28;20487;-79
2021/06/20 06:36:38;;;;;;;42.75;26.60;;;17.20;99.90;;;;;;5090612;28;20020;-81
2021/06/20 06:39:04;;;;;;;46.47;25.85;;;17.20;99.90;;;;;;5089617;28;20024;-80
2021/06/20 06:41:31;;;;;;;42.17;24.08;;;17.20;99.90;;;;;;5091527;28;20487;-80
2021/06/20 06:43:57;;;;;;;37.38;24.25;;;17.30;99.90;;;;;;5094361;28;20028;-80
2021/06/20 06:46:22;;;;;;;42.42;25.17;;;17.30;99.90;;;;;;5092916;28;20032;-81
2021/06/20 06:48:48;;;;;;;25.73;18.20;;;17.40;99.90;;;;;;5091669;28;20016;-81
2021/06/20 06:51:13;;;;;;;29.63;20.30;;;17.40;99.90;;;;;;5094000;28;20392;-80
2021/06/20 06:53:40;;;;;;;28.60;20.58;;;17.40;99.90;;;;;;5091591;28;20074;-82
2021/06/20 06:56:05;;;;;;;34.58;23.08;;;17.50;99.90;;;;;;5094340;28;20086;-82
2021/06/20 06:58:31;;;;;;;35.17;21.83;;;17.60;99.90;;;;;;5078167;28;20036;-80
2021/06/20 07:00:56;;;;;;;37.50;21.90;;;17.70;99.90;;;;;;5082170;28;20020;-80
2021/06/20 07:03:22;;;;;;;36.17;23.95;;;17.70;99.90;;;;;;5086495;28;20403;-80
2021/06/20 07:05:47;;;;;;;42.28;28.48;;;17.80;99.90;;;;;;5088715;28;20464;-80
2021/06/20 07:08:13;;;;;;;37.53;25.65;;;17.80;99.90;;;;;;5080737;28;20481;-81
2021/06/20 07:10:39;;;;;;;47.28;27.38;;;18.00;99.90;;;;;;5088139;28;20176;-80
2021/06/20 07:13:04;;;;;;;47.38;29.77;;;18.10;99.90;;;;;;5078359;28;20440;-80
2021/06/20 07:15:30;;;;;;;40.83;28.55;;;18.30;99.90;;;;;;5087818;28;20036;-80
2021/06/20 07:17:56;;;;;;;44.70;30.80;;;18.40;99.90;;;;;;5080983;28;20031;-81
2021/06/20 07:20:23;;;;;;;48.80;33.85;;;18.70;99.90;;;;;;5068827;28;20025;-82
2021/06/20 07:22:49;;;;;;;62.72;38.40;;;18.80;99.90;;;;;;5070262;28;20086;-81
2021/06/20 07:25:24;;;;;;;58.30;36.13;;;19.00;99.90;;;;;;5085205;28;20036;-81
2021/06/20 07:27:50;;;;;;;57.75;39.30;;;19.10;99.90;;;;;;5087697;28;20116;-82
2021/06/20 07:30:20;;;;;;;51.72;38.30;;;19.50;99.90;;;;;;5087456;28;20535;-81
2021/06/20 07:32:46;;;;;;;60.15;39.28;;;19.70;99.90;;;;;;5079125;28;20494;-80
2021/06/20 07:35:13;;;;;;;50.97;36.72;;;20.00;99.90;;;;;;5079691;28;20057;-79
2021/06/20 07:37:38;;;;;;;43.20;33.05;;;20.20;99.90;;;;;;5087872;28;20028;-79
2021/06/20 07:40:08;;;;;;;42.15;30.13;;;20.50;99.90;;;;;;5087576;28;20031;-79
2021/06/20 07:42:34;;;;;;;41.03;29.63;;;20.60;99.90;;;;;;5078621;28;20024;-79
2021/06/20 07:44:59;;;;;;;32.08;24.10;;;20.70;99.90;;;;;;5074686;28;20475;-78
2021/06/20 07:47:25;;;;;;;35.28;26.25;;;20.70;99.90;;;;;;5087560;28;20024;-78
2021/06/20 07:49:50;;;;;;;33.42;23.88;;;20.80;99.90;;;;;;5087109;28;20114;-79
2021/06/20 07:52:16;;;;;;;29.98;21.92;;;20.80;99.90;;;;;;5072240;28;20079;-79
2021/06/20 07:54:49;;;;;;;29.77;20.65;;;20.80;99.90;;;;;;5074353;28;20028;-79
2021/06/20 07:57:19;;;;;;;27.45;20.95;;;20.80;99.90;;;;;;5078098;28;20028;-79
2021/06/20 07:59:46;;;;;;;24.00;19.48;;;20.90;99.90;;;;;;5071195;28;20461;-79
2021/06/20 08:02:13;;;;;;;25.15;18.00;;;20.80;99.90;;;;;;5084122;28;20395;-78
2021/06/20 08:04:39;;;;;;;29.15;19.20;;;20.70;99.90;;;;;;5087600;28;20016;-78
2021/06/20 08:07:06;;;;;;;22.73;18.27;;;20.70;99.90;;;;;;5089355;28;20093;-78
2021/06/20 08:09:32;;;;;;;26.90;17.30;;;20.80;99.90;;;;;;5092637;28;20471;-78
2021/06/20 08:11:58;;;;;;;27.95;17.20;;;20.80;99.90;;;;;;5090144;28;20024;-78
2021/06/20 08:14:23;;;;;;;24.10;16.90;;;20.90;99.90;;;;;;5092844;28;20384;-79
2021/06/20 08:16:49;;;;;;;19.17;15.43;;;21.00;99.90;;;;;;5079518;28;20040;-78
2021/06/20 08:19:16;;;;;;;23.10;15.18;;;20.90;99.90;;;;;;5087905;28;20021;-78
2021/06/20 08:21:43;;;;;;;23.63;14.82;;;21.10;99.90;;;;;;5070821;28;20483;-79
2021/06/20 08:24:09;;;;;;;18.48;13.45;;;21.20;99.90;;;;;;5072255;28;20024;-79
2021/06/20 08:26:35;;;;;;;14.10;12.60;;;21.20;99.90;;;;;;5072287;28;20544;-78
2021/06/20 08:29:01;;;;;;;16.15;13.32;;;21.10;99.90;;;;;;5073284;28;20143;-78
2021/06/20 08:31:26;;;;;;;23.50;12.88;;;21.20;99.90;;;;;;5072069;28;20024;-79
2021/06/20 08:33:52;;;;;;;18.23;12.40;;;21.20;99.90;;;;;;5084192;28;20033;-80
2021/06/20 08:36:18;;;;;;;19.90;11.32;;;21.50;99.90;;;;;;5079283;28;20044;-82
2021/06/20 08:38:43;;;;;;;14.85;9.77;;;21.90;99.90;;;;;;5079012;28;20039;-79
2021/06/20 08:41:13;;;;;;;11.50;10.30;;;22.20;99.90;;;;;;5085517;28;20032;-79
2021/06/20 08:43:39;;;;;;;15.32;9.70;;;22.40;99.90;;;;;;5084846;28;20028;-80
2021/06/20 08:46:04;;;;;;;16.02;10.45;;;22.60;99.90;;;;;;5077633;28;20028;-77
2021/06/20 08:48:33;;;;;;;16.40;8.23;;;22.30;99.90;;;;;;5081204;28;20031;-78
2021/06/20 08:50:58;;;;;;;11.52;7.32;;;22.10;99.90;;;;;;5078456;28;20021;-78
2021/06/20 08:53:24;;;;;;;15.30;8.30;;;22.10;99.90;;;;;;5001890;28;20030;-79
2021/06/20 08:55:51;;;;;;;13.00;9.40;;;21.90;99.90;;;;;;5008384;28;20088;-78
2021/06/20 08:58:22;;;;;;;21.85;8.88;;;21.70;99.90;;;;;;5003707;28;20505;-78
2021/06/20 09:00:48;;;;;;;18.33;9.40;;;21.50;99.90;;;;;;5008468;28;20514;-78
2021/06/20 09:03:14;;;;;;;16.48;9.80;;;21.40;99.90;;;;;;5006811;28;20037;-77
2021/06/20 09:05:53;;;;;;;21.27;9.88;;;21.30;99.90;;;;;;5006653;28;20036;-78
2021/06/20 09:08:25;;;;;;;13.50;9.52;;;21.20;99.90;;;;;;4999983;28;20040;-77
2021/06/20 09:10:50;;;;;;;19.33;9.80;;;21.20;99.90;;;;;;5001260;28;20036;-77
2021/06/20 09:13:16;;;;;;;21.73;9.80;;;21.30;99.90;;;;;;5013698;28;20025;-77
2021/06/20 09:15:42;;;;;;;16.80;10.15;;;21.40;99.90;;;;;;5007914;28;20025;-77
2021/06/20 09:18:10;;;;;;;18.40;10.23;;;21.50;99.90;;;;;;5023671;28;20030;-77
2021/06/20 09:20:44;;;;;;;19.23;9.73;;;21.40;99.90;;;;;;5006532;28;20032;-77
2021/06/20 09:23:15;;;;;;;18.67;10.85;;;21.30;99.90;;;;;;5001035;28;20021;-77
2021/06/20 09:25:44;;;;;;;21.55;10.93;;;21.40;99.90;;;;;;5002389;28;20033;-77
2021/06/20 09:28:11;;;;;;;14.70;9.85;;;21.40;99.90;;;;;;5011633;28;20026;-77
2021/06/20 09:30:48;;;;;;;21.30;10.55;;;21.40;99.90;;;;;;5004532;28;20030;-77
2021/06/20 09:33:14;;;;;;;18.52;10.52;;;21.40;99.90;;;;;;5009965;28;20026;-78
2021/06/20 09:35:51;;;;;;;17.95;9.05;;;21.40;99.90;;;;;;5011383;28;20048;-79
2021/06/20 09:38:29;;;;;;;20.38;10.10;;;21.40;99.90;;;;;;5011615;28;20042;-78
2021/06/20 09:41:08;;;;;;;21.13;10.45;;;21.70;99.90;;;;;;5009425;28;20379;-78
2021/06/20 09:43:35;;;;;;;14.07;9.65;;;22.00;99.90;;;;;;5009768;28;20539;-78
2021/06/20 09:46:02;;;;;;;32.30;10.23;;;22.20;99.90;;;;;;5011123;28;20034;-77
2021/06/20 09:48:34;;;;;;;18.33;10.32;;;22.40;99.90;;;;;;5011275;28;20010;-77
2021/06/20 09:51:12;;;;;;;15.02;9.68;;;22.60;99.90;;;;;;5007813;28;20087;-77
2021/06/20 09:53:39;;;;;;;18.38;10.65;;;22.40;99.90;;;;;;5009247;28;20026;-77
2021/06/20 09:56:12;;;;;;;19.45;11.95;;;22.50;99.90;;;;;;5010245;28;20535;-77
2021/06/20 09:58:42;;;;;;;19.75;11.60;;;22.30;99.90;;;;;;5011468;28;20033;-77
2021/06/20 10:01:10;;;;;;;19.83;12.18;;;22.20;99.90;;;;;;5007922;28;20037;-78
2021/06/20 10:03:36;;;;;;;15.77;10.93;;;22.30;99.90;;;;;;5011188;28;20022;-77
2021/06/20 10:06:03;;;;;;;16.45;11.50;;;22.60;99.90;;;;;;5011690;28;20022;-78
2021/06/20 10:08:31;;;;;;;21.20;11.48;;;22.90;99.90;;;;;;5011896;28;20052;-78
2021/06/20 10:10:57;;;;;;;19.52;11.60;;;23.00;99.90;;;;;;5010817;28;20599;-78
2021/06/20 10:13:22;;;;;;;16.33;10.82;;;23.00;99.90;;;;;;5011517;28;20098;-79
2021/06/20 10:15:48;;;;;;;21.13;11.70;;;23.00;99.90;;;;;;5011529;28;20486;-80
2021/06/20 10:18:15;;;;;;;17.83;11.23;;;22.80;99.90;;;;;;5011863;28;20442;-80
2021/06/20 10:20:41;;;;;;;21.05;12.05;;;22.70;99.90;;;;;;5010799;28;20030;-80
2021/06/20 10:23:18;;;;;;;16.33;11.65;;;22.60;99.90;;;;;;5011254;28;20498;-79
2021/06/20 10:25:44;;;;;;;24.52;11.52;;;22.60;99.90;;;;;;5011166;28;20034;-79
2021/06/20 10:28:13;;;;;;;20.23;11.90;;;22.60;99.90;;;;;;5011631;28;20026;-79
2021/06/20 10:30:41;;;;;;;18.58;11.57;;;22.80;99.90;;;;;;5010109;28;20025;-79
2021/06/20 10:33:27;;;;;;;22.55;13.45;;;22.50;99.90;;;;;;4991817;28;20033;-80
2021/06/20 10:36:09;;;;;;;28.17;12.23;;;22.20;99.90;;;;;;4994759;28;20027;-78
2021/06/20 10:38:45;;;;;;;24.45;11.95;;;22.30;99.90;;;;;;4994011;28;20080;-80
2021/06/20 10:41:29;;;;;;;17.05;9.60;;;22.70;99.90;;;;;;4995152;28;20482;-79
2021/06/20 10:43:59;;;;;;;18.52;9.10;;;23.40;99.90;;;;;;4993760;28;20033;-81
2021/06/20 10:46:25;;;;;;;16.92;9.40;;;23.90;99.90;;;;;;4993461;28;20030;-79
2021/06/20 10:48:51;;;;;;;16.77;9.25;;;23.90;99.90;;;;;;4995109;28;20030;-80
2021/06/20 10:51:19;;;;;;;15.20;9.57;;;23.50;99.90;;;;;;4996147;28;20022;-79
2021/06/20 10:53:45;;;;;;;18.60;10.68;;;23.30;99.90;;;;;;5014132;28;20470;-80
2021/06/20 10:56:23;;;;;;;15.60;11.38;;;23.10;99.90;;;;;;5013053;28;20041;-80
2021/06/20 10:58:51;;;;;;;16.98;10.98;;;23.10;99.90;;;;;;5014100;28;20018;-80
2021/06/20 11:01:19;;;;;;;16.88;11.48;;;23.20;99.90;;;;;;5014959;28;20021;-81
2021/06/20 11:03:50;;;;;;;16.90;10.95;;;23.70;99.90;;;;;;5032391;28;20119;-79
2021/06/20 11:06:17;;;;;;;19.13;10.80;;;24.10;99.90;;;;;;5022603;28;20371;-79
2021/06/20 11:08:56;;;;;;;19.27;10.13;;;24.20;99.90;;;;;;5000825;28;20014;-81
2021/06/20 11:11:24;;;;;;;18.13;11.60;;;24.20;99.90;;;;;;5008714;28;20054;-80
2021/06/20 11:13:55;;;;;;;13.18;10.27;;;23.60;99.90;;;;;;4994365;28;20485;-79
2021/06/20 11:16:26;;;;;;;19.15;11.88;;;23.10;99.90;;;;;;4994344;28;20039;-80
2021/06/20 11:19:15;;;;;;;19.83;10.02;;;22.70;99.90;;;;;;5038495;28;20032;-79
2021/06/20 11:21:57;;;;;;;22.02;7.65;;;21.90;99.90;;;;;;5031969;28;20026;-78
2021/06/20 11:24:25;;;;;;;15.13;7.20;;;21.50;99.90;;;;;;5027343;28;20109;-81
2021/06/20 11:27:03;;;;;;;11.40;7.07;;;21.70;99.90;;;;;;4994077;28;20461;-79
2021/06/20 11:29:49;;;;;;;12.15;6.47;;;22.00;99.90;;;;;;4994253;28;20093;-79
2021/06/20 11:32:21;;;;;;;21.48;7.00;;;22.10;99.90;;;;;;4993712;28;20025;-78
2021/06/20 11:34:51;;;;;;;16.90;6.00;;;22.00;99.90;;;;;;5009041;28;20034;-77
2021/06/20 11:37:22;;;;;;;13.23;5.45;;;21.90;99.90;;;;;;4994057;28;20088;-78
2021/06/20 11:39:49;;;;;;;9.50;4.65;;;21.70;99.90;;;;;;4996232;28;20034;-79
2021/06/20 11:42:30;;;;;;;5.93;3.15;;;21.90;99.90;;;;;;5011762;28;20510;-79
2021/06/20 11:44:59;;;;;;;10.65;3.08;;;22.00;99.90;;;;;;5011466;28;20505;-78
2021/06/20 11:47:32;;;;;;;11.63;2.38;;;22.30;99.90;;;;;;5012907;28;20072;-78
2021/06/20 11:50:12;;;;;;;10.35;2.70;;;22.60;99.90;;;;;;5012148;28;20041;-78
2021/06/20 11:52:49;;;;;;;9.38;1.63;;;22.20;99.90;;;;;;4994587;28;20042;-79
2021/06/20 11:55:17;;;;;;;5.07;1.75;;;21.80;99.90;;;;;;4992295;28;20556;-78
2021/06/20 11:57:44;;;;;;;16.15;2.17;;;21.90;99.90;;;;;;5008857;28;20038;-80
2021/06/20 12:00:12;;;;;;;7.45;2.17;;;21.80;99.90;;;;;;4992435;28;20034;-79
2021/06/20 12:02:38;;;;;;;9.38;2.60;;;22.20;99.90;;;;;;5002152;28;20076;-79
2021/06/20 12:05:04;;;;;;;8.45;1.90;;;22.20;99.90;;;;;;5012777;28;20482;-78
2021/06/20 12:07:30;;;;;;;6.45;1.90;;;22.20;99.90;;;;;;5008174;28;20023;-77
2021/06/20 12:09:56;;;;;;;11.45;2.13;;;22.10;99.90;;;;;;4993403;28;20088;-78
2021/06/20 12:12:21;;;;;;;9.07;2.47;;;22.30;99.90;;;;;;4993125;28;20096;-78
2021/06/20 12:15:03;;;;;;;7.38;2.38;;;22.20;99.90;;;;;;5003191;28;20122;-80
2021/06/20 12:17:28;;;;;;;15.73;2.55;;;22.20;99.90;;;;;;4996859;28;20026;-78
2021/06/20 12:19:58;;;;;;;9.70;2.40;;;22.20;99.90;;;;;;4992328;28;20037;-80
2021/06/20 12:22:24;;;;;;;15.20;2.35;;;22.30;99.90;;;;;;4991534;28;20026;-81
2021/06/20 12:24:55;;;;;;;14.40;3.22;;;22.60;99.90;;;;;;4993096;28;20026;-79
2021/06/20 12:27:36;;;;;;;7.53;1.95;;;23.10;99.90;;;;;;4993169;28;20034;-79
2021/06/20 12:30:20;;;;;;;13.40;3.17;;;22.20;99.90;;;;;;4995313;28;20022;-79